createdAt,value
2019-03-31T00:02:00.949Z,10.90
2019-03-31T00:04:29.383Z,10.90
2019-03-31T00:06:57.855Z,10.90
2019-03-31T00:09:26.457Z,10.90
2019-03-31T00:11:54.977Z,10.90
2019-03-31T00:14:23.416Z,10.90
2019-03-31T00:16:52.636Z,10.90
2019-03-31T00:19:21.271Z,10.80
2019-03-31T00:21:49.701Z,10.80
2019-03-31T00:24:18.157Z,10.60
2019-03-31T00:26:46.639Z,10.70
2019-03-31T00:29:15.160Z,10.60
2019-03-31T00:31:43.686Z,10.70
2019-03-31T00:34:12.148Z,10.60
2019-03-31T00:36:40.591Z,10.50
2019-03-31T00:39:09.057Z,10.50
2019-03-31T00:41:37.512Z,10.50
2019-03-31T00:44:05.972Z,10.50
2019-03-31T00:46:34.491Z,10.50
2019-03-31T00:49:02.951Z,10.50
2019-03-31T00:51:31.393Z,10.50
2019-03-31T00:53:59.877Z,10.50
2019-03-31T00:56:28.374Z,10.70
2019-03-31T00:58:56.824Z,10.60
2019-03-31T01:01:38.595Z,10.70
2019-03-31T01:04:07.971Z,10.70
2019-03-31T01:06:37.426Z,10.60
2019-03-31T01:09:10.594Z,10.60
2019-03-31T01:11:39.106Z,10.50
2019-03-31T01:14:07.638Z,10.30
2019-03-31T01:16:36.160Z,10.20
2019-03-31T01:19:06.046Z,10.20
2019-03-31T01:21:34.490Z,10.20
2019-03-31T01:24:02.963Z,10.10
2019-03-31T01:26:31.459Z,10.20
2019-03-31T01:29:00.220Z,10.10
2019-03-31T01:31:29.152Z,10.30
2019-03-31T01:33:57.612Z,10.30
2019-03-31T01:36:26.395Z,10.40
2019-03-31T01:38:54.862Z,10.30
2019-03-31T01:41:23.302Z,10.30
2019-03-31T01:43:51.754Z,10.20
2019-03-31T01:46:21.242Z,10.10
2019-03-31T01:48:49.703Z,10.10
2019-03-31T01:51:18.155Z,10.10
2019-03-31T01:53:46.600Z,9.90
2019-03-31T01:56:15.330Z,9.90
2019-03-31T01:58:43.884Z,9.90
2019-03-31T02:01:14.028Z,9.80
2019-03-31T02:03:42.488Z,9.70
2019-03-31T02:06:10.998Z,9.80
2019-03-31T02:08:39.451Z,9.50
2019-03-31T02:11:07.891Z,9.60
2019-03-31T02:13:36.424Z,9.70
2019-03-31T02:16:05.011Z,9.50
2019-03-31T02:18:33.474Z,9.40
2019-03-31T02:21:02.173Z,9.40
2019-03-31T02:23:30.631Z,9.40
2019-03-31T02:25:59.069Z,9.30
2019-03-31T02:28:27.525Z,9.30
2019-03-31T02:30:55.987Z,9.30
2019-03-31T02:33:24.536Z,9.20
2019-03-31T02:35:52.978Z,9.30
2019-03-31T02:38:21.518Z,9.20
2019-03-31T02:40:49.961Z,9.10
2019-03-31T02:43:18.433Z,9.10
2019-03-31T02:45:46.866Z,9.10
2019-03-31T02:48:15.337Z,9.10
2019-03-31T02:50:50.843Z,8.90
2019-03-31T02:53:20.627Z,9.00
2019-03-31T02:55:49.688Z,9.00
2019-03-31T02:58:19.313Z,8.80
2019-03-31T03:00:48.124Z,8.70
2019-03-31T03:03:17.360Z,8.90
2019-03-31T03:05:46.448Z,8.80
2019-03-31T03:08:16.798Z,8.80
2019-03-31T03:10:45.251Z,8.70
2019-03-31T03:13:14.851Z,8.80
2019-03-31T03:15:57.875Z,8.70
2019-03-31T03:18:26.406Z,8.70
2019-03-31T03:20:54.857Z,8.70
2019-03-31T03:23:23.303Z,8.60
2019-03-31T03:25:56.218Z,8.60
2019-03-31T03:28:21.933Z,8.60
2019-03-31T03:30:50.539Z,8.60
2019-03-31T03:33:19.362Z,8.70
2019-03-31T03:35:47.904Z,8.60
2019-03-31T03:38:16.343Z,8.50
2019-03-31T03:40:44.790Z,8.50
2019-03-31T03:43:13.229Z,8.50
2019-03-31T03:45:41.696Z,8.50
2019-03-31T03:48:10.128Z,8.50
2019-03-31T03:50:38.600Z,8.30
2019-03-31T03:53:07.125Z,8.40
2019-03-31T03:55:35.574Z,8.40
2019-03-31T03:58:04.087Z,8.40
2019-03-31T04:00:32.597Z,8.40
2019-03-31T04:03:01.056Z,8.30
2019-03-31T04:05:29.501Z,8.40
2019-03-31T04:07:57.950Z,8.40
2019-03-31T04:10:44.337Z,8.20
2019-03-31T04:13:13.338Z,8.20
2019-03-31T04:15:42.062Z,8.30
2019-03-31T04:18:10.691Z,8.20
2019-03-31T04:20:39.697Z,8.30
2019-03-31T04:23:08.327Z,8.30
2019-03-31T04:25:36.800Z,8.00
2019-03-31T04:28:05.318Z,8.20
2019-03-31T04:30:33.773Z,8.20
2019-03-31T04:33:02.289Z,8.20
2019-03-31T04:35:30.821Z,8.10
2019-03-31T04:37:59.272Z,8.00
2019-03-31T04:40:27.818Z,8.00
2019-03-31T04:42:56.330Z,8.10
2019-03-31T04:45:24.822Z,7.90
2019-03-31T04:47:53.265Z,7.90
2019-03-31T04:50:21.705Z,8.00
2019-03-31T04:52:50.154Z,8.10
2019-03-31T04:55:18.612Z,8.20
2019-03-31T04:57:47.122Z,8.20
2019-03-31T05:00:15.702Z,8.20
2019-03-31T05:02:44.167Z,8.20
2019-03-31T05:05:12.600Z,8.40
2019-03-31T05:07:41.074Z,8.30
2019-03-31T05:10:09.638Z,8.20
2019-03-31T05:12:38.085Z,8.40
2019-03-31T05:15:06.770Z,8.50
2019-03-31T05:17:35.987Z,8.70
2019-03-31T05:20:05.893Z,8.80
2019-03-31T05:22:34.468Z,8.80
2019-03-31T05:25:03.136Z,9.00
2019-03-31T05:27:31.573Z,9.10
2019-03-31T05:30:00.034Z,9.10
2019-03-31T05:32:28.484Z,9.10
2019-03-31T05:34:56.923Z,9.40
2019-03-31T05:37:25.395Z,9.60
2019-03-31T05:39:53.852Z,9.70
2019-03-31T05:42:22.308Z,9.80
2019-03-31T05:44:50.764Z,9.80
2019-03-31T05:47:19.276Z,9.90
2019-03-31T05:49:47.710Z,10.20
2019-03-31T05:52:16.207Z,10.20
2019-03-31T05:54:44.719Z,10.10
2019-03-31T05:57:13.197Z,10.00
2019-03-31T05:59:41.637Z,10.00
2019-03-31T06:02:10.085Z,9.80
2019-03-31T06:04:38.531Z,9.70
2019-03-31T06:07:07.006Z,9.70
2019-03-31T06:09:35.437Z,9.70
2019-03-31T06:12:03.973Z,9.60
2019-03-31T06:14:32.420Z,9.80
2019-03-31T06:17:00.878Z,9.90
2019-03-31T06:19:29.339Z,10.00
2019-03-31T06:21:57.865Z,10.10
2019-03-31T06:24:26.481Z,10.10
2019-03-31T06:26:54.926Z,10.10
2019-03-31T06:29:23.389Z,10.10
2019-03-31T06:31:51.834Z,10.00
2019-03-31T06:34:20.304Z,10.10
2019-03-31T06:36:48.732Z,10.00
2019-03-31T06:39:17.207Z,10.00
2019-03-31T06:41:45.647Z,10.00
2019-03-31T06:44:14.106Z,10.10
2019-03-31T06:46:42.551Z,10.00
2019-03-31T06:49:11.018Z,10.00
2019-03-31T06:51:39.533Z,10.00
2019-03-31T06:54:08.003Z,10.00
2019-03-31T06:56:36.510Z,10.10
2019-03-31T06:59:04.974Z,10.10
2019-03-31T07:01:33.426Z,10.10
2019-03-31T07:04:01.902Z,10.00
2019-03-31T07:06:30.355Z,10.10
2019-03-31T07:08:58.878Z,10.00
2019-03-31T07:11:27.334Z,10.10
2019-03-31T07:13:55.790Z,9.90
2019-03-31T07:16:24.273Z,9.90
2019-03-31T07:18:52.715Z,9.90
2019-03-31T07:21:21.159Z,9.90
2019-03-31T07:23:49.668Z,9.90
2019-03-31T07:26:18.119Z,10.10
2019-03-31T07:28:46.575Z,10.00
2019-03-31T07:31:15.029Z,10.00
2019-03-31T07:33:43.556Z,10.00
2019-03-31T07:36:11.995Z,10.20
2019-03-31T07:38:40.473Z,10.10
2019-03-31T07:41:13.133Z,10.20
2019-03-31T07:43:39.233Z,10.10
2019-03-31T07:46:07.675Z,10.30
2019-03-31T07:48:36.195Z,10.40
2019-03-31T07:51:04.661Z,10.40
2019-03-31T07:53:33.093Z,10.40
2019-03-31T07:56:01.558Z,10.20
2019-03-31T07:58:29.995Z,10.20
2019-03-31T08:00:58.459Z,10.30
2019-03-31T08:03:26.911Z,10.30
2019-03-31T08:05:55.619Z,10.40
2019-03-31T08:08:24.059Z,10.30
2019-03-31T08:10:52.532Z,10.30
2019-03-31T08:13:20.979Z,10.30
2019-03-31T08:15:49.454Z,10.10
2019-03-31T08:18:17.967Z,10.10
2019-03-31T08:20:46.438Z,10.00
2019-03-31T08:23:14.888Z,10.00
2019-03-31T08:25:43.348Z,9.80
2019-03-31T08:28:11.799Z,9.90
2019-03-31T08:30:40.274Z,10.30
2019-03-31T08:33:08.803Z,10.30
2019-03-31T08:35:47.251Z,10.20
2019-03-31T08:38:07.443Z,10.40
2019-03-31T08:40:35.917Z,10.30
2019-03-31T08:43:04.376Z,10.40
2019-03-31T08:45:32.873Z,10.50
2019-03-31T08:48:01.324Z,10.60
2019-03-31T08:50:29.785Z,10.40
2019-03-31T08:52:58.248Z,10.40
2019-03-31T08:55:26.704Z,10.30
2019-03-31T08:57:55.148Z,10.40
2019-03-31T09:00:25.263Z,10.40
2019-03-31T09:02:53.698Z,10.80
2019-03-31T09:05:22.188Z,10.60
2019-03-31T09:07:50.701Z,10.70
2019-03-31T09:10:19.312Z,10.60
2019-03-31T09:12:48.643Z,11.00
2019-03-31T09:15:17.453Z,10.80
2019-03-31T09:17:45.954Z,10.60
2019-03-31T09:20:15.116Z,10.70
2019-03-31T09:22:43.574Z,10.40
2019-03-31T09:25:12.270Z,10.80
2019-03-31T09:27:40.867Z,10.50
2019-03-31T09:30:12.251Z,10.80
2019-03-31T09:32:40.731Z,10.50
2019-03-31T09:35:09.711Z,10.50
2019-03-31T09:37:38.315Z,10.70
2019-03-31T09:40:08.403Z,10.90
2019-03-31T09:42:36.869Z,11.10
2019-03-31T09:45:06.461Z,10.90
2019-03-31T09:47:35.061Z,11.20
2019-03-31T09:50:05.415Z,11.00
2019-03-31T09:52:33.877Z,11.20
2019-03-31T09:55:04.675Z,11.70
2019-03-31T09:57:33.337Z,11.50
2019-03-31T10:00:01.773Z,12.10
2019-03-31T10:02:30.247Z,11.70
2019-03-31T10:04:58.686Z,11.60
2019-03-31T10:07:27.464Z,11.50
2019-03-31T10:09:56.298Z,12.00
2019-03-31T10:12:24.762Z,12.00
2019-03-31T10:14:54.402Z,11.70
2019-03-31T10:17:22.953Z,11.70
2019-03-31T10:19:51.395Z,11.50
2019-03-31T10:22:19.853Z,11.30
2019-03-31T10:24:48.585Z,11.20
2019-03-31T10:27:17.083Z,11.30
2019-03-31T10:29:45.588Z,11.00
2019-03-31T10:32:14.120Z,11.00
2019-03-31T10:34:42.554Z,11.00
2019-03-31T10:37:10.997Z,11.00
2019-03-31T10:39:39.466Z,10.50
2019-03-31T10:42:07.924Z,10.70
2019-03-31T10:44:36.381Z,10.70
2019-03-31T10:47:05.028Z,10.70
2019-03-31T10:49:33.481Z,10.80
2019-03-31T10:52:01.922Z,10.60
2019-03-31T10:54:30.387Z,10.60
2019-03-31T10:56:58.842Z,10.70
2019-03-31T10:59:27.322Z,11.00
2019-03-31T11:01:55.766Z,11.20
2019-03-31T11:04:24.231Z,11.30
2019-03-31T11:06:58.860Z,11.20
2019-03-31T11:09:22.942Z,11.00
2019-03-31T11:11:51.410Z,11.30
2019-03-31T11:14:19.858Z,10.60
2019-03-31T11:16:48.339Z,10.30
2019-03-31T11:19:16.812Z,10.40
2019-03-31T11:21:46.946Z,10.30
2019-03-31T11:24:15.404Z,10.60
2019-03-31T11:26:43.874Z,10.90
2019-03-31T11:29:12.319Z,11.00
2019-03-31T11:31:40.782Z,11.20
2019-03-31T11:34:09.296Z,11.10
2019-03-31T11:36:37.759Z,11.10
2019-03-31T11:39:07.078Z,11.10
2019-03-31T11:41:35.515Z,11.40
2019-03-31T11:44:04.073Z,11.50
2019-03-31T11:46:32.547Z,11.70
2019-03-31T11:49:01.018Z,11.80
2019-03-31T11:51:29.464Z,11.80
2019-03-31T11:53:57.927Z,11.90
2019-03-31T11:56:26.395Z,11.70
2019-03-31T11:58:54.847Z,11.70
2019-03-31T12:01:23.369Z,11.70
2019-03-31T12:03:51.835Z,11.80
2019-03-31T12:06:20.311Z,12.00
2019-03-31T12:08:48.760Z,11.90
2019-03-31T12:11:17.288Z,12.40
2019-03-31T12:13:45.743Z,12.40
2019-03-31T12:16:14.276Z,12.50
2019-03-31T12:18:42.727Z,12.60
2019-03-31T12:21:11.201Z,12.80
2019-03-31T12:23:39.649Z,13.60
2019-03-31T12:26:08.124Z,14.50
2019-03-31T12:28:36.599Z,15.50
2019-03-31T12:31:05.097Z,16.30
2019-03-31T12:33:33.609Z,16.00
2019-03-31T12:36:02.112Z,15.70
2019-03-31T12:38:30.559Z,15.90
2019-03-31T12:40:59.054Z,15.60
2019-03-31T12:43:27.618Z,15.10
2019-03-31T12:45:56.487Z,14.60
2019-03-31T12:48:25.833Z,15.20
2019-03-31T12:50:54.341Z,15.60
2019-03-31T12:53:22.801Z,15.50
2019-03-31T12:55:59.825Z,15.20
2019-03-31T12:58:21.653Z,15.10
2019-03-31T13:00:50.931Z,14.50
2019-03-31T13:03:19.366Z,14.50
2019-03-31T13:05:47.826Z,14.60
2019-03-31T13:08:16.277Z,14.40
2019-03-31T13:10:44.724Z,14.20
2019-03-31T13:13:13.242Z,14.60
2019-03-31T13:15:41.726Z,14.80
2019-03-31T13:18:10.172Z,14.20
2019-03-31T13:20:38.696Z,13.90
2019-03-31T13:23:07.143Z,14.10
2019-03-31T13:25:35.614Z,13.60
2019-03-31T13:28:05.638Z,13.90
2019-03-31T13:30:34.534Z,13.80
2019-03-31T13:33:03.006Z,13.40
2019-03-31T13:35:31.476Z,13.60
2019-03-31T13:38:10.333Z,13.40
2019-03-31T13:40:30.110Z,13.30
2019-03-31T13:42:58.574Z,13.30
2019-03-31T13:45:27.084Z,12.90
2019-03-31T13:47:58.545Z,13.10
2019-03-31T13:50:25.724Z,12.90
2019-03-31T13:52:54.191Z,12.50
2019-03-31T13:55:22.646Z,12.60
2019-03-31T13:57:52.733Z,13.00
2019-03-31T14:00:35.666Z,12.80
2019-03-31T14:03:04.347Z,12.70
2019-03-31T14:05:32.806Z,12.80
2019-03-31T14:08:01.328Z,12.90
2019-03-31T14:10:29.854Z,13.00
2019-03-31T14:12:58.297Z,12.80
2019-03-31T14:15:26.815Z,12.90
2019-03-31T14:17:55.284Z,12.70
2019-03-31T14:20:23.835Z,12.70
2019-03-31T14:22:52.282Z,12.80
2019-03-31T14:25:20.729Z,12.70
2019-03-31T14:27:49.194Z,12.60
2019-03-31T14:30:17.863Z,12.80
2019-03-31T14:32:46.347Z,12.60
2019-03-31T14:35:14.932Z,12.80
2019-03-31T14:37:43.379Z,12.80
2019-03-31T14:40:11.972Z,12.80
2019-03-31T14:42:40.407Z,12.70
2019-03-31T14:45:10.563Z,12.70
2019-03-31T14:47:39.023Z,12.70
2019-03-31T14:50:07.615Z,13.20
2019-03-31T14:52:36.062Z,13.10
2019-03-31T14:55:05.571Z,12.70
2019-03-31T14:57:34.023Z,12.30
2019-03-31T15:00:13.947Z,12.50
2019-03-31T15:02:32.829Z,12.40
2019-03-31T15:05:01.303Z,12.50
2019-03-31T15:07:29.978Z,12.30
2019-03-31T15:09:58.443Z,12.20
2019-03-31T15:12:26.885Z,12.50
2019-03-31T15:14:55.365Z,12.50
2019-03-31T15:17:23.863Z,12.20
2019-03-31T15:19:52.337Z,12.10
2019-03-31T15:22:20.765Z,12.00
2019-03-31T15:24:49.235Z,12.20
2019-03-31T15:27:17.766Z,12.30
2019-03-31T15:29:46.225Z,12.40
2019-03-31T15:32:16.311Z,12.50
2019-03-31T15:34:44.769Z,12.30
2019-03-31T15:37:13.225Z,12.20
2019-03-31T15:39:41.699Z,12.20
2019-03-31T15:42:10.155Z,12.20
2019-03-31T15:44:38.630Z,12.10
2019-03-31T15:47:07.080Z,12.00
2019-03-31T15:49:35.557Z,12.10
2019-03-31T15:52:04.244Z,12.00
2019-03-31T15:54:32.675Z,12.00
2019-03-31T15:57:01.254Z,12.00
2019-03-31T15:59:29.763Z,11.90
2019-03-31T16:01:58.199Z,11.80
2019-03-31T16:04:26.657Z,11.90
2019-03-31T16:06:55.169Z,12.20
2019-03-31T16:09:24.263Z,12.20
2019-03-31T16:11:53.937Z,12.30
2019-03-31T16:14:22.774Z,12.50
2019-03-31T16:16:51.342Z,12.10
2019-03-31T16:19:19.826Z,11.90
2019-03-31T16:21:48.276Z,11.80
2019-03-31T16:24:18.353Z,11.90
2019-03-31T16:26:46.818Z,11.80
2019-03-31T16:29:15.314Z,11.90
2019-03-31T16:31:43.794Z,11.90
2019-03-31T16:34:12.244Z,12.00
2019-03-31T16:36:40.770Z,12.00
2019-03-31T16:39:09.279Z,11.80
2019-03-31T16:41:37.738Z,11.70
2019-03-31T16:44:06.168Z,11.70
2019-03-31T16:46:34.648Z,11.40
2019-03-31T16:49:03.177Z,11.30
2019-03-31T16:51:31.716Z,11.30
2019-03-31T16:54:00.156Z,11.40
2019-03-31T16:56:28.626Z,11.40
2019-03-31T16:58:57.077Z,11.40
2019-03-31T17:01:25.581Z,11.30
2019-03-31T17:03:54.027Z,11.10
2019-03-31T17:06:22.489Z,11.20
2019-03-31T17:08:51.089Z,11.10
2019-03-31T17:11:19.549Z,11.00
2019-03-31T17:13:48.025Z,10.90
2019-03-31T17:16:16.483Z,11.10
2019-03-31T17:18:45.037Z,10.90
2019-03-31T17:21:13.562Z,11.00
2019-03-31T17:23:42.020Z,11.00
2019-03-31T17:26:10.459Z,11.30
2019-03-31T17:28:38.915Z,11.00
2019-03-31T17:31:07.383Z,10.70
2019-03-31T17:33:35.833Z,10.50
2019-03-31T17:36:04.450Z,10.40
2019-03-31T17:38:33.102Z,10.20
2019-03-31T17:41:01.549Z,10.20
2019-03-31T17:43:30.014Z,10.10
2019-03-31T17:45:58.529Z,10.10
2019-03-31T17:48:27.014Z,10.00
2019-03-31T17:50:55.465Z,10.00
2019-03-31T17:53:23.936Z,9.90
2019-03-31T17:55:52.386Z,9.80
2019-03-31T17:58:20.864Z,9.70
2019-03-31T18:00:49.304Z,9.80
2019-03-31T18:03:17.764Z,9.60
2019-03-31T18:05:46.207Z,9.50
2019-03-31T18:08:14.730Z,9.50
2019-03-31T18:10:43.174Z,9.50
2019-03-31T18:13:11.630Z,9.40
2019-03-31T18:15:40.092Z,9.20
2019-03-31T18:18:08.655Z,9.10
2019-03-31T18:20:37.140Z,9.10
2019-03-31T18:23:05.598Z,9.10
2019-03-31T18:25:34.043Z,9.20
2019-03-31T18:28:02.509Z,9.20
2019-03-31T18:30:30.950Z,9.10
2019-03-31T18:32:59.395Z,9.00
2019-03-31T18:35:27.890Z,9.10
2019-03-31T18:37:56.337Z,9.10
2019-03-31T18:40:34.727Z,9.00
2019-03-31T18:42:54.962Z,8.90
2019-03-31T18:45:23.436Z,8.70
2019-03-31T18:47:51.936Z,8.70
2019-03-31T18:50:20.547Z,8.70
2019-03-31T18:52:49.006Z,8.80
2019-03-31T18:55:19.120Z,8.70
2019-03-31T18:57:55.057Z,8.80
2019-03-31T19:00:25.236Z,8.60
2019-03-31T19:03:11.583Z,8.50
2019-03-31T19:05:41.724Z,8.50
2019-03-31T19:08:11.811Z,8.50
2019-03-31T19:10:49.312Z,8.40
2019-03-31T19:13:22.742Z,8.40
2019-03-31T19:15:55.585Z,8.50
2019-03-31T19:18:25.748Z,8.40
2019-03-31T19:21:10.675Z,8.30
2019-03-31T19:23:35.745Z,8.20
2019-03-31T19:26:17.691Z,8.30
2019-03-31T19:28:50.281Z,8.20
2019-03-31T19:31:26.151Z,8.20
2019-03-31T19:34:08.181Z,8.10
2019-03-31T19:36:38.296Z,8.10
2019-03-31T19:39:22.250Z,8.10
2019-03-31T19:42:10.348Z,8.00
2019-03-31T19:44:52.105Z,7.90
2019-03-31T19:47:30.923Z,7.90
2019-03-31T19:50:06.979Z,7.80
2019-03-31T19:52:39.837Z,7.70
2019-03-31T19:55:24.492Z,7.70
2019-03-31T19:58:09.411Z,7.60
2019-03-31T20:00:48.434Z,7.50
2019-03-31T20:03:34.844Z,7.60
2019-03-31T20:06:04.918Z,7.50
2019-03-31T20:08:38.018Z,7.50
2019-03-31T20:11:11.027Z,7.50
2019-03-31T20:13:57.118Z,7.50
2019-03-31T20:16:32.722Z,7.40
2019-03-31T20:19:08.394Z,7.40
2019-03-31T20:21:41.258Z,7.50
2019-03-31T20:24:17.131Z,7.40
2019-03-31T20:26:59.089Z,7.40
2019-03-31T20:29:34.924Z,7.30
2019-03-31T20:32:21.330Z,7.30
2019-03-31T20:34:54.135Z,7.30
2019-03-31T20:37:24.214Z,7.30
2019-03-31T20:40:00.376Z,7.20
2019-03-31T20:42:42.279Z,7.20
2019-03-31T20:45:10.878Z,7.10
2019-03-31T20:47:39.314Z,7.20
2019-03-31T20:50:07.995Z,7.10
2019-03-31T20:52:36.470Z,7.00
2019-03-31T20:55:16.349Z,7.00
2019-03-31T20:57:35.955Z,6.90
2019-03-31T21:00:07.489Z,6.90
2019-03-31T21:02:35.961Z,6.90
2019-03-31T21:05:05.247Z,6.80
2019-03-31T21:07:33.699Z,6.80
2019-03-31T21:10:02.146Z,6.70
2019-03-31T21:12:30.599Z,6.70
2019-03-31T21:14:59.047Z,6.70
2019-03-31T21:17:27.478Z,6.60
2019-03-31T21:19:55.931Z,6.70
2019-03-31T21:22:24.365Z,6.50
2019-03-31T21:24:52.814Z,6.50
2019-03-31T21:27:21.245Z,6.40
2019-03-31T21:29:49.687Z,6.40
2019-03-31T21:32:18.191Z,6.30
2019-03-31T21:34:46.651Z,6.30
2019-03-31T21:37:15.081Z,6.20
2019-03-31T21:39:43.543Z,6.20
2019-03-31T21:42:11.990Z,6.20
2019-03-31T21:44:40.443Z,6.10
2019-03-31T21:47:08.884Z,6.00
2019-03-31T21:49:37.338Z,6.00
2019-03-31T21:52:05.902Z,5.90
2019-03-31T21:54:34.361Z,5.90
2019-03-31T21:57:02.884Z,5.90
2019-03-31T21:59:33.441Z,5.80
2019-03-31T22:02:01.586Z,5.90
2019-03-31T22:04:30.028Z,5.80
2019-03-31T22:06:58.461Z,5.70
2019-03-31T22:09:26.926Z,5.70
2019-03-31T22:11:55.350Z,5.60
2019-03-31T22:14:23.885Z,5.60
2019-03-31T22:16:52.366Z,5.60
2019-03-31T22:19:20.797Z,5.50
2019-03-31T22:21:49.257Z,5.60
2019-03-31T22:24:17.681Z,5.40
2019-03-31T22:26:46.305Z,5.40
2019-03-31T22:29:14.733Z,5.40
2019-03-31T22:31:43.214Z,5.30
2019-03-31T22:34:11.659Z,5.20
2019-03-31T22:36:40.196Z,5.30
2019-03-31T22:39:08.625Z,5.30
2019-03-31T22:41:37.075Z,5.20
2019-03-31T22:44:07.942Z,5.10
2019-03-31T22:46:36.374Z,5.00
2019-03-31T22:49:04.814Z,5.00
2019-03-31T22:51:35.023Z,5.00
2019-03-31T22:54:03.478Z,4.90
2019-03-31T22:56:31.947Z,4.90
2019-03-31T22:59:00.390Z,4.90
2019-03-31T23:01:28.915Z,4.80
2019-03-31T23:03:57.349Z,4.80
2019-03-31T23:06:25.798Z,4.80
2019-03-31T23:08:54.301Z,4.80
2019-03-31T23:11:22.758Z,4.70
2019-03-31T23:13:51.206Z,4.70
2019-03-31T23:16:19.664Z,4.70
2019-03-31T23:18:48.100Z,4.60
2019-03-31T23:21:16.556Z,4.60
2019-03-31T23:23:44.984Z,4.60
2019-03-31T23:26:13.519Z,4.50
2019-03-31T23:28:47.632Z,4.50
2019-03-31T23:31:18.725Z,4.50
2019-03-31T23:33:47.161Z,4.50
2019-03-31T23:36:15.616Z,4.40
2019-03-31T23:38:44.053Z,4.40
2019-03-31T23:41:12.515Z,4.40
2019-03-31T23:43:40.941Z,4.30
2019-03-31T23:46:09.396Z,4.20
2019-03-31T23:48:37.825Z,4.20
2019-03-31T23:51:06.283Z,4.20
2019-03-31T23:53:34.715Z,4.10
2019-03-31T23:56:03.241Z,4.10
2019-03-31T23:58:31.677Z,4.10
